Strona główna
METAR-TAF:

METAR-TAF

Lotnisko :

Port lotniczy Southampton

Southampton, Anglia

Szerokość geograficzna: 50-54N, Długość geograficzna: 001-24W, wysokość: 9 m

Aktualna obserwacja pogody

Raport powstał 33 minut temu, godzina 11:20 UTC
Wiatr 3 kt z kierunków zmiennych
Temperatura 9°C
Wilgotność 81%
Ciśnienie 1001 hPa
Widzialność 10 km lub więcej
Mało chmury na wysokości 4000 ft

METAR: EGHI 161120Z VRB03KT 9999 FEW040 09/06 Q1001

czas: 11:53 (11:53 UTC)

Prognoza

Raport powstał 56 minut temu, godzina 10:57 UTC
Prognoza ważna od 16 godzina 12 UTC do 16 godzina 21 UTC
Wiatr 3 kt z kierunków zmiennych
Widzialność 10 km lub więcej
Rozproszone chmury na wysokości 3500 ft
Prawdopodobieństwo 30% :
Przejściowo
od 16 godzina 18 UTC do 16 godzina 21 UTC
Widzialność: 7000 m
Przerywane chmury na wysokości 1000 ft
deszcz

TAF: EGHI 161057Z 1612/1621 VRB03KT 9999 SCT035 PROB30 TEMPO 1618/1621 7000 RA BKN010

Obserwacja i prognoza pogody dla ponad 4000 lotnisk (raport METAR i TAF).

Dostępne stacje oznaczono żółtymi i czerwonymi punktami na mapie.

Najedź kursorem aby zobaczyć nazwę stacji.

Kliknij aby zobaczyć obserwacje i prognozy pogody.

Aby zmienić mapę: kliknij na zielony przycisk z czarnym krzyżykiem, aby powiększyć; na zielony przycisk z myślnikiem, aby pomniejszyć; na zielone strzałki, aby przejść do map sąsiednich.


METAR-TAF: